• Join FlightAware (Why Join?)
  • Login
  • US Flag 
01:56AM EDT


 

Airport Tracker/Info


-or-


 

Live Flight TrackerFlight Track Log ✈ DAL1636 ✈ 14-Apr-2013 ✈ KDTW - KBWI

Flight Track Log - Related Links

Times and Time Zones

All times are in EDT time to prevent confusion due to time zone crossing. See the DAL1636 flight status page for this flight to view local times or setup timezone preferences in your user account.

Time Position Orientation Groundspeed Altitude Reporting Facility
EDT Latitude Longitude Course Direction KTS MPH feet Rate Location/Type
08:24PM 42.1994 -83.3581 197° South 164 189 1,500  Level Cleveland Center
08:25PM 42.1808 -83.3656 197° South 200 230 2,100 1,680 Climbing FAA TRACON SMA TRACON (SMA)
08:25PM 42.1622 -83.3750 201° Southwest 226 260 2,900 3,180 Climbing FAA TRACON SMA TRACON (SMA)
08:25PM 42.1422 -83.3856 201° Southwest 226 260 4,200 3,480 Climbing FAA TRACON SMA TRACON (SMA)
08:26PM 42.1233 -83.3911 192° South 231 266 5,200 2,820 Climbing FAA TRACON SMA TRACON (SMA)
08:26PM 42.0997 -83.3981 192° South 250 288 6,100 2,820 Climbing FAA TRACON SMA TRACON (SMA)
08:26PM 42.0739 -83.4058 193° South 259 298 7,100 2,820 Climbing FAA TRACON SMA TRACON (SMA)
08:27PM 42.0508 -83.4075 183° South 270 311 8,000 2,820 Climbing FAA TRACON SMA TRACON (SMA)
08:27PM 42.0294 -83.3886 147° Southeast 277 319 9,000 2,460 Climbing FAA TRACON SMA TRACON (SMA)
08:27PM 42.0192 -83.3561 113° Southeast 324 373 9,600 1,620 Climbing FAA TRACON SMA TRACON (SMA)
08:28PM 42.0183 -83.3203 92° East 310 357 10,100 840 Climbing FAA TRACON SMA TRACON (SMA)
08:28PM 42.0203 -83.2736 87° East 330 380 10,200 1,020 Climbing FAA TRACON SMA TRACON (SMA)
08:28PM 42.0231 -83.2350 84° East 344 396 10,800 1,620 Climbing FAA TRACON SMA TRACON (SMA)
08:29PM 42.0269 -83.1842 84° East 362 417 11,300 1,500 Climbing FAA TRACON SMA TRACON (SMA)
08:29PM 42.0306 -83.1400 84° East 397 457 11,800 1,620 Climbing FAA TRACON SMA TRACON (SMA)
08:29PM 42.0342 -83.0950 84° East 405 466 12,400 1,680 Climbing FAA TRACON SMA TRACON (SMA)
08:30PM 42.0381 -83.0483 84° East 410 472 12,900 2,220 Climbing FAA TRACON SMA TRACON (SMA)
08:30PM 42.0431 -82.9894 83° East 413 475 13,900 2,460 Climbing FAA TRACON SMA TRACON (SMA)
08:30PM 42.0478 -82.9417 82° East 420 483 14,600 2,640 Climbing FAA TRACON SMA TRACON (SMA)
08:31PM 42.0533 -82.8814 83° East 422 486 15,800 3,300 Climbing FAA TRACON SMA TRACON (SMA)
08:31PM 42.0589 -82.8206 83° East 425 489 17,000 2,700 Climbing FAA TRACON SMA TRACON (SMA)
08:31PM 42.0622 -82.7842 83° East 425 489 17,500 1,800 Climbing FAA TRACON SMA TRACON (SMA)
08:32PM 42.0669 -82.7350 83° East 430 495 18,100 1,800 Climbing FAA TRACON SMA TRACON (SMA)
08:32PM 42.0722 -82.6731 83° East 433 498 18,700 1,800 Climbing FAA TRACON SMA TRACON (SMA)
08:32PM 42.0767 -82.6219 83° East 442 509 19,300 1,920 Climbing FAA TRACON SMA TRACON (SMA)
08:33PM 42.0822 -82.5572 83° East 452 520 20,000 2,160 Climbing FAA TRACON SMA TRACON (SMA)
08:33PM 42.0853 -82.5047 85° East 453 521 20,800 1,920 Climbing FAA TRACON SMA TRACON (SMA)
08:33PM 42.0822 -82.4528 95° East 457 526 21,300 1,800 Climbing FAA TRACON SMA TRACON (SMA)
08:34PM 42.0739 -82.3878 100° East 459 528 22,000 1,800 Climbing FAA TRACON SMA TRACON (SMA)
08:34PM 42.0658 -82.3358 102° East 461 531 22,500 1,020 Climbing FAA TRACON SMA TRACON (SMA)
08:34PM 42.0583 -82.2828 101° East 465 535 22,700 720 Climbing FAA TRACON SMA TRACON (SMA)
08:35PM 42.0506 -82.2289 101° East 472 543 23,000 420 Climbing FAA TRACON SMA TRACON (SMA)
08:35PM 42.0464 -82.2017 102° East 475 547 23,000 1,200 Level FAA TRACON SMA TRACON (SMA)
08:36PM 41.9842 -82.0386 117° Southeast 462 532 24,400 1,080 Climbing Cleveland Center
08:37PM 41.8811 -81.9358 143° Southeast 442 509 25,000 300 Climbing Cleveland Center
08:38PM 41.7883 -81.8447 144° Southeast 442 509 25,000  Level Cleveland Center
08:39PM 41.6811 -81.7453 145° Southeast 461 531 25,000  Level Cleveland Center
08:40PM 41.5797 -81.6436 143° Southeast 468 539 25,000  Level Cleveland Center
08:41PM 41.4722 -81.5419 145° Southeast 468 539 25,000  Level Cleveland Center
08:42PM 41.3606 -81.4325 144° Southeast 468 539 25,000  Level Cleveland Center
08:43PM 41.2531 -81.3317 145° Southeast 474 545 25,000  Level Cleveland Center
08:44PM 41.1472 -81.2283 144° Southeast 474 545 25,000  Level Cleveland Center
08:45PM 41.0436 -81.1308 145° Southeast 469 540 25,000  Level Cleveland Center
08:46PM 40.9419 -81.0311 143° Southeast 469 540 25,000  Level Cleveland Center
08:47PM 40.8358 -80.9317 145° Southeast 469 540 25,000  Level Cleveland Center
08:48PM 40.7297 -80.8353 145° Southeast 469 540 25,000  Level Cleveland Center
08:49PM 40.6236 -80.7364 145° Southeast 474 545 25,000  Level Cleveland Center
08:50PM 40.5175 -80.6378 145° Southeast 474 545 25,000  Level Cleveland Center
08:51PM 40.4092 -80.5394 145° Southeast 474 545 25,000  Level Cleveland Center
08:52PM 40.3025 -80.4417 145° Southeast 474 545 25,000  Level Cleveland Center
08:53PM 40.1983 -80.3467 145° Southeast 474 545 25,000  Level Cleveland Center
08:54PM 40.1000 -80.2600 146° Southeast 468 539 25,000  Level Cleveland Center
08:55PM 39.9975 -80.1603 143° Southeast 468 539 25,000  Level Cleveland Center
08:57PM 39.8708 -79.8225 116° Southeast 458 527 25,000  Level Washington Center
08:58PM 39.8261 -79.6631 110° East 463 533 25,000  Level Washington Center
08:59PM 39.7794 -79.5011 111° Southeast 468 539 25,000  Level Washington Center
09:00PM 39.7344 -79.3422 110° East 474 545 25,000  Level Washington Center
09:01PM 39.6875 -79.1781 110° East 474 545 25,000 -420 Level Washington Center
09:02PM 39.6464 -79.0169 108° East 474 545 24,200 -900 Descending Washington Center
09:03PM 39.6033 -78.8344 107° East 474 545 23,300 -780 Descending Washington Center
09:04PM 39.5661 -78.6686 106° East 474 545 22,700 -1,920 Descending Washington Center
09:05PM 39.5306 -78.5056 106° East 474 545 19,500 -2,940 Descending Washington Center
09:06PM 39.4967 -78.3508 106° East 460 529 16,900 -2,220 Descending Washington Center
09:07PM 39.4625 -78.2069 107° East 439 505 15,100 -960 Descending Washington Center
09:08PM 39.4300 -78.0608 106° East 426 490 15,000 -120 Descending Washington Center
09:09PM 39.4017 -77.9119 104° East 421 484 14,900 -780 Descending Washington Center
09:10PM 39.4086 -77.7619 87° East 415 478 13,500 -1,140 Descending Washington Center
09:11PM 39.4194 -77.6144 85° East 409 471 12,700 -1,200 Descending Washington Center
09:12PM 39.4364 -77.4753 81° East 404 465 11,100 -900 Descending Washington Center
09:13PM 39.4489 -77.3331 83° East 399 459 11,000 -120 Descending Washington Center
09:14PM 39.4667 -77.2333 77° East 401 461 11,000  Level Potomac TRACON
09:14PM 39.4667 -77.1167 90° East 400 460 11,000 -60 Level Potomac TRACON
09:15PM 39.4667 -76.9833 90° East 371 427 10,900 -720 Descending Potomac TRACON
09:17PM 39.4333 -76.8500 108° East 320 368 9,600 -1,320 Descending Potomac TRACON
09:17PM 39.4333 -76.7500 90° East 315 362 8,300 -1,500 Descending Potomac TRACON
09:18PM 39.4000 -76.6500 113° Southeast 308 354 6,800 -1,500 Descending Potomac TRACON
09:19PM 39.3500 -76.5667 128° Southeast 287 330 5,300 -1,440 Descending Potomac TRACON
09:20PM 39.3000 -76.5167 142° Southeast 280 322 4,000 -900 Descending Potomac TRACON
09:21PM 39.2167 -76.5000 171° South 262 302 3,600 -540 Descending Potomac TRACON
09:22PM 39.1500 -76.5333 201° Southwest 224 258 3,000 -360 Descending Potomac TRACON
09:23PM 39.1167 -76.5500 201° Southwest 173 199 2,900 -720 Descending Potomac TRACON
09:25PM 39.1000 -76.6000 247° West 167 192 1,600 -1,020 Descending Potomac TRACON
09:25PM 39.1333 -76.6333 322° Northwest 146 168 900 -780 Descending Potomac TRACON
09:27PM 39.1667 -76.6667 299° West  Level FlightAware Approximate
09:34PM 39.1754 -76.6683 299° West  Level Estimated
09:35PM 39.1754 -76.6683 299° West  Level Estimated